Weather at Grandpa's Farm Airport [CLOSED]

Public forecast

Using degrees Fahrenheit for public forecast. Weather courtesy of forecast.io.

Closest aviation weather report (METAR) to Grandpa's Farm Airport

Closest report is Chippewa Valley Regional Airport, 17.9 nm (33.1 km) WNW. Retrieved 2021/06/13 08:56 UTC (57 minutes ago):

KEAU 130856Z AUTO 23003KT 10SM CLR 14/11 A3002 RMK AO2 SLP162 T01390106 53010

Closest aviation forecast (TAF) to Grandpa's Farm Airport

Closest forecast is Chippewa Valley Regional Airport, 17.9 nm (33.1 km) WNW. Retrieved 2021/06/13 06:22 UTC (4 hours ago):

TAF KEAU 130520Z 1306/1406 VRB03KT P6SM SKC FM131600 24006KT P6SM SKC FM132100 25012G20KT P6SM FEW250 FM140100 35009KT P6SM FEW250